Time;durP1;ratioP1;P1;durP2;ratioP2;P2;SDS_P1;SDS_P2;PMS_P1;PMS_P2;Temp;Humidity;BMP_temperature;BMP_pressure;BME280_temperature;BME280_humidity;BME280_pressure;Samples;Min_cycle;Max_cycle;Signal;HPM_P1;HPM_P2
2023/04/07 00:01:52;;;;;;;6.90;3.00;;;;;;;18.85;42.18;101370.53;4999598;28;20764;-69
2023/04/07 00:04:17;;;;;;;5.88;3.05;;;;;;;18.86;42.45;101368.72;5002897;28;20033;-69
2023/04/07 00:06:42;;;;;;;5.43;2.88;;;;;;;18.85;42.28;101375.81;4988408;28;20054;-68
2023/04/07 00:09:09;;;;;;;7.20;3.35;;;;;;;18.84;42.15;101371.47;4983505;28;20039;-69
2023/04/07 00:11:35;;;;;;;5.68;2.78;;;;;;;18.85;42.25;101372.34;4983518;28;20033;-70
2023/04/07 00:14:00;;;;;;;6.63;3.22;;;;;;;18.82;42.34;101362.81;4999749;28;20025;-69
2023/04/07 00:16:25;;;;;;;5.63;2.83;;;;;;;18.83;42.11;101372.44;4987629;28;20053;-69
2023/04/07 00:18:51;;;;;;;5.40;2.85;;;;;;;18.83;42.21;101372.44;4995921;28;20288;-69
2023/04/07 00:21:16;;;;;;;5.50;2.80;;;;;;;18.82;42.20;101373.38;4983301;28;20483;-69
2023/04/07 00:23:41;;;;;;;5.32;2.85;;;;;;;18.82;42.29;101376.03;5000338;28;20104;-68
2023/04/07 00:26:07;;;;;;;7.43;3.00;;;;;;;18.79;42.38;101376.25;4992532;28;20046;-68
2023/04/07 00:28:32;;;;;;;5.28;2.85;;;;;;;18.81;42.11;101386.69;4993014;28;20375;-70
2023/04/07 00:30:57;;;;;;;5.60;2.70;;;;;;;18.79;42.13;101380.69;5002630;28;20437;-71
2023/04/07 00:33:23;;;;;;;4.63;2.92;;;;;;;18.79;42.16;101383.34;5000454;28;20128;-69
2023/04/07 00:35:48;;;;;;;5.22;2.80;;;;;;;18.79;42.27;101386.81;4988461;28;20057;-72
2023/04/07 00:38:13;;;;;;;5.82;2.70;;;;;;;18.78;42.18;101385.13;4982932;28;20467;-70
2023/04/07 00:40:38;;;;;;;5.28;2.83;;;;;;;18.76;42.26;101376.47;4994205;28;20141;-70
2023/04/07 00:43:04;;;;;;;5.10;2.88;;;;;;;18.76;42.25;101370.38;4992808;28;20038;-70
2023/04/07 00:45:30;;;;;;;4.80;2.70;;;;;;;18.73;42.16;101370.59;4997832;28;20061;-68
2023/04/07 00:47:58;;;;;;;5.47;2.83;;;;;;;18.74;42.22;101372.25;5000438;28;20140;-71
2023/04/07 00:50:26;;;;;;;5.75;2.70;;;;;;;18.71;42.07;101370.72;4982706;28;20057;-69
2023/04/07 00:52:53;;;;;;;5.45;2.80;;;;;;;18.72;42.27;101369.75;4986538;28;20144;-71
2023/04/07 00:55:18;;;;;;;4.35;2.38;;;;;;;18.71;42.22;101377.78;4986448;28;20793;-70
2023/04/07 00:57:45;;;;;;;4.97;2.85;;;;;;;18.71;42.31;101373.34;4999730;28;20033;-69
2023/04/07 01:00:11;;;;;;;4.97;2.70;;;;;;;18.64;42.40;101369.47;4998973;28;20042;-69
2023/04/07 01:02:41;;;;;;;6.80;2.80;;;;;;;18.70;41.92;101384.84;4986789;28;20553;-69
2023/04/07 01:05:25;;;;;;;6.13;2.53;;;;;;;18.70;42.09;101384.03;4987453;28;20030;-68
2023/04/07 01:08:14;;;;;;;4.80;2.77;;;;;;;18.68;42.09;101379.69;4993088;28;20034;-69
2023/04/07 01:10:48;;;;;;;4.85;2.80;;;;;;;18.66;41.99;101378.97;4982138;28;20447;-72
2023/04/07 01:13:29;;;;;;;5.28;2.83;;;;;;;18.63;42.00;101381.00;4982551;28;20530;-69
2023/04/07 01:15:59;;;;;;;6.35;2.60;;;;;;;18.62;42.13;101382.78;4981990;28;20089;-69
2023/04/07 01:18:30;;;;;;;4.55;2.25;;;;;;;18.55;42.29;101370.16;4988611;28;20522;-70
2023/04/07 01:21:01;;;;;;;4.95;2.40;;;;;;;18.59;42.37;101380.38;5007009;28;20043;-69
2023/04/07 01:23:50;;;;;;;6.68;2.78;;;;;;;18.60;42.10;101376.78;4994162;28;20118;-70
2023/04/07 01:26:23;;;;;;;5.05;2.35;;;;;;;18.61;42.29;101385.53;4994044;28;20129;-69
2023/04/07 01:29:13;;;;;;;4.60;2.42;;;;;;;18.60;42.16;101386.53;4984680;28;21240;-70
2023/04/07 01:31:40;;;;;;;6.97;2.50;;;;;;;18.60;42.08;101387.34;4996697;28;20045;-70
2023/04/07 01:34:08;;;;;;;5.07;2.80;;;;;;;18.60;42.25;101387.34;5001898;28;20564;-69
2023/04/07 01:36:33;;;;;;;4.68;2.40;;;;;;;18.63;42.06;101387.13;4969183;28;20042;-70
2023/04/07 01:38:59;;;;;;;5.05;2.63;;;;;;;18.63;42.29;101392.41;4981862;28;20034;-70
2023/04/07 01:41:26;;;;;;;5.43;2.40;;;;;;;18.62;42.07;101385.44;4990720;28;20487;-68
2023/04/07 01:43:53;;;;;;;4.18;2.55;;;;;;;18.60;42.15;101389.16;4987090;28;20092;-69
2023/04/07 01:46:19;;;;;;;4.68;2.35;;;;;;;18.64;42.03;101404.66;4976776;28;20049;-68
2023/04/07 01:48:45;;;;;;;5.32;2.55;;;;;;;18.63;42.01;101399.50;4981910;28;20074;-70
2023/04/07 01:51:16;;;;;;;4.97;2.50;;;;;;;18.62;42.04;101401.28;4987386;28;20029;-71
2023/04/07 01:53:42;;;;;;;4.55;2.10;;;;;;;18.65;41.92;101408.13;4995225;28;20025;-68
2023/04/07 01:56:07;;;;;;;4.75;2.25;;;;;;;18.62;41.92;101403.91;4987628;28;20041;-70
2023/04/07 01:58:32;;;;;;;4.00;1.90;;;;;;;18.61;41.71;101406.66;4993637;28;20390;-69
2023/04/07 02:00:58;;;;;;;4.65;2.05;;;;;;;18.63;42.01;101407.41;4990798;28;20072;-69
2023/04/07 02:03:34;;;;;;;4.47;2.03;;;;;;;18.60;41.80;101408.47;4987276;28;20038;-70
2023/04/07 02:06:06;;;;;;;4.93;1.92;;;;;;;18.61;41.89;101415.44;4988297;28;20030;-69
2023/04/07 02:08:32;;;;;;;3.50;1.60;;;;;;;18.60;42.05;101408.47;4994189;28;20034;-72
2023/04/07 02:10:59;;;;;;;3.35;1.73;;;;;;;18.61;41.92;101412.81;4990308;28;20096;-70
2023/04/07 02:13:27;;;;;;;4.40;1.90;;;;;;;18.58;41.97;101405.13;4989819;28;20034;-69
2023/04/07 02:15:55;;;;;;;4.35;1.63;;;;;;;18.59;41.75;101414.69;4999693;28;20035;-71
2023/04/07 02:18:22;;;;;;;6.10;2.03;;;;;;;18.59;41.94;101408.59;5001490;28;20069;-69
2023/04/07 02:20:51;;;;;;;3.10;1.70;;;;;;;18.57;41.84;101403.41;4991544;28;20054;-70
2023/04/07 02:23:16;;;;;;;6.38;2.05;;;;;;;18.58;41.89;101409.53;5004957;28;20152;-69
2023/04/07 02:25:41;;;;;;;3.78;1.80;;;;;;;18.58;42.04;101407.75;4995721;28;20452;-69
2023/04/07 02:28:07;;;;;;;3.50;1.67;;;;;;;18.56;41.81;101406.16;4987000;28;20046;-71
2023/04/07 02:30:32;;;;;;;4.25;1.90;;;;;;;18.57;41.86;101408.69;4985438;28;20045;-69
2023/04/07 02:32:58;;;;;;;3.67;1.80;;;;;;;18.56;41.90;101404.38;4996593;28;20037;-69
2023/04/07 02:35:23;;;;;;;4.30;1.80;;;;;;;18.53;41.76;101401.94;4996199;28;20033;-70
2023/04/07 02:37:49;;;;;;;4.82;2.00;;;;;;;18.54;41.71;101400.16;4997773;28;20033;-70
2023/04/07 02:40:15;;;;;;;3.97;1.90;;;;;;;18.54;41.65;101401.00;4986763;28;20026;-69
2023/04/07 02:42:40;;;;;;;4.13;1.73;;;;;;;18.53;41.89;101401.94;4999750;28;20026;-72
2023/04/07 02:45:07;;;;;;;4.07;1.70;;;;;;;18.51;41.83;101401.22;4990334;28;20460;-69
2023/04/07 02:47:33;;;;;;;5.47;2.00;;;;;;;18.52;41.63;101409.97;4999810;28;20903;-71
2023/04/07 02:49:58;;;;;;;4.60;1.88;;;;;;;18.49;41.71;101409.25;4998825;28;20659;-71
2023/04/07 02:52:23;;;;;;;3.90;1.80;;;;;;;18.49;41.87;101411.06;5004355;28;20037;-69
2023/04/07 02:54:49;;;;;;;5.28;1.75;;;;;;;18.48;41.60;101406.72;5004322;28;20034;-69
2023/04/07 02:57:14;;;;;;;4.88;1.83;;;;;;;18.44;41.84;101406.13;5002510;28;20029;-69
2023/04/07 02:59:40;;;;;;;3.78;1.60;;;;;;;18.47;41.88;101408.53;4995373;28;20033;-69
2023/04/07 03:02:05;;;;;;;4.18;1.70;;;;;;;18.45;41.75;101406.97;4983533;28;20503;-69
2023/04/07 03:04:30;;;;;;;3.17;1.50;;;;;;;18.46;41.96;101408.66;4985399;28;20045;-69
2023/04/07 03:06:56;;;;;;;3.83;1.63;;;;;;;18.48;41.79;101417.28;5000466;28;20033;-70
2023/04/07 03:09:22;;;;;;;4.88;1.80;;;;;;;18.47;41.71;101407.72;5000102;28;20471;-71
2023/04/07 03:11:47;;;;;;;3.70;1.70;;;;;;;18.48;41.61;101410.25;4988084;28;20931;-70
2023/04/07 03:14:12;;;;;;;4.45;1.83;;;;;;;18.46;41.92;101414.75;4987554;28;20034;-69
2023/04/07 03:16:37;;;;;;;2.58;1.40;;;;;;;18.48;41.69;101417.28;5001238;28;20546;-70
2023/04/07 03:19:03;;;;;;;3.38;1.58;;;;;;;18.51;41.81;101416.22;5000456;28;20045;-69
2023/04/07 03:21:28;;;;;;;4.45;1.92;;;;;;;18.47;41.75;101413.81;5001976;28;20068;-69
2023/04/07 03:23:54;;;;;;;3.95;1.60;;;;;;;18.46;42.08;101412.13;4991054;28;20029;-70
2023/04/07 03:26:20;;;;;;;4.22;1.67;;;;;;;18.48;41.78;101414.66;4991046;28;20031;-68
2023/04/07 03:28:45;;;;;;;4.05;1.88;;;;;;;18.46;41.85;101412.13;4998677;28;20065;-68
2023/04/07 03:31:11;;;;;;;4.00;1.40;;;;;;;18.48;41.59;101414.66;5002865;28;20077;-68
2023/04/07 03:33:36;;;;;;;4.68;2.00;;;;;;;18.47;41.63;101416.47;4997330;28;20042;-69
2023/04/07 03:36:01;;;;;;;3.77;1.50;;;;;;;18.46;41.73;101417.41;4987303;28;20042;-69
2023/04/07 03:38:27;;;;;;;4.60;1.60;;;;;;;18.43;41.76;101411.50;4986115;28;20306;-69
2023/04/07 03:40:53;;;;;;;3.75;1.40;;;;;;;18.45;41.58;101410.47;5003712;28;20034;-70
2023/04/07 03:43:18;;;;;;;4.75;1.70;;;;;;;18.42;41.76;101413.31;4990834;28;20874;-68
2023/04/07 03:45:43;;;;;;;3.85;1.67;;;;;;;18.40;42.04;101411.75;4996008;28;20038;-69
2023/04/07 03:48:12;;;;;;;4.15;1.50;;;;;;;18.41;41.63;101410.78;4970308;28;20038;-69
2023/04/07 03:50:38;;;;;;;3.72;1.50;;;;;;;18.40;41.84;101412.56;4997329;28;20092;-68
2023/04/07 03:53:04;;;;;;;3.80;1.70;;;;;;;18.39;41.75;101412.69;4994737;28;20125;-69
2023/04/07 03:55:29;;;;;;;5.20;1.88;;;;;;;18.40;41.62;101417.84;4988388;28;20405;-69
2023/04/07 03:57:55;;;;;;;4.18;1.80;;;;;;;18.40;41.89;101417.03;5001297;28;20092;-69
2023/04/07 04:00:20;;;;;;;4.75;1.73;;;;;;;18.40;41.76;101414.38;4984685;28;21391;-71
2023/04/07 04:02:46;;;;;;;3.47;1.65;;;;;;;18.40;41.71;101415.22;4996834;28;20117;-69
2023/04/07 04:05:11;;;;;;;3.92;1.83;;;;;;;18.41;41.44;101424.81;4994658;28;20141;-68
2023/04/07 04:07:36;;;;;;;6.32;2.38;;;;;;;18.41;41.57;101419.53;5002692;28;20465;-69
2023/04/07 04:10:01;;;;;;;4.30;1.85;;;;;;;18.40;41.68;101424.94;4995438;28;20034;-69
2023/04/07 04:12:27;;;;;;;4.65;1.77;;;;;;;18.39;41.70;101417.97;4993271;28;20533;-69
2023/04/07 04:14:52;;;;;;;4.35;1.83;;;;;;;18.39;41.70;101416.19;5002738;28;20072;-69
2023/04/07 04:17:18;;;;;;;4.63;1.73;;;;;;;18.39;41.62;101416.19;4988183;28;20058;-69
2023/04/07 04:19:43;;;;;;;5.30;1.77;;;;;;;18.38;41.64;101417.13;4992520;28;20070;-71
2023/04/07 04:22:08;;;;;;;4.75;2.10;;;;;;;18.37;41.66;101407.50;4979951;28;20057;-69
2023/04/07 04:24:34;;;;;;;5.25;2.13;;;;;;;18.37;41.58;101417.25;4978978;28;20080;-68
2023/04/07 04:27:00;;;;;;;4.85;2.00;;;;;;;18.39;41.79;101416.19;4995448;28;20062;-67
2023/04/07 04:29:26;;;;;;;4.05;1.65;;;;;;;18.36;41.68;101419.03;4996270;28;20052;-69
2023/04/07 04:31:51;;;;;;;4.90;2.10;;;;;;;18.35;41.71;101420.00;4995099;28;20482;-68
2023/04/07 04:34:16;;;;;;;3.60;1.67;;;;;;;18.33;41.62;101415.81;4984493;28;20080;-68
2023/04/07 04:36:41;;;;;;;4.97;1.60;;;;;;;18.34;41.60;101426.25;4989258;28;20038;-68
2023/04/07 04:39:07;;;;;;;4.03;1.77;;;;;;;18.34;41.54;101428.88;5002116;28;20299;-67
2023/04/07 04:41:32;;;;;;;4.75;1.55;;;;;;;18.34;41.59;101431.53;5002282;28;20048;-68
2023/04/07 04:43:57;;;;;;;4.82;1.70;;;;;;;18.34;41.65;101431.53;4982849;28;20477;-68
2023/04/07 04:46:23;;;;;;;4.55;1.80;;;;;;;18.35;41.86;101435.00;4967954;28;20038;-71
2023/04/07 04:48:50;;;;;;;5.88;1.80;;;;;;;18.33;41.66;101440.38;4987433;28;20044;-69
2023/04/07 04:51:15;;;;;;;5.47;2.05;;;;;;;18.35;41.52;101446.38;4999696;28;20034;-71
2023/04/07 04:53:41;;;;;;;5.60;2.00;;;;;;;18.36;41.38;101450.72;4995110;28;20061;-69
2023/04/07 04:56:07;;;;;;;4.15;1.80;;;;;;;18.31;41.54;101453.69;4994413;28;20030;-70
2023/04/07 04:58:32;;;;;;;3.80;1.70;;;;;;;18.25;41.67;101451.47;4986305;28;20048;-69
2023/04/07 05:00:59;;;;;;;5.43;1.73;;;;;;;18.23;41.59;101452.53;4987555;28;20059;-72
2023/04/07 05:03:25;;;;;;;3.00;1.30;;;;;;;18.23;41.61;101461.31;5002041;28;20026;-71
2023/04/07 05:05:50;;;;;;;3.35;1.30;;;;;;;18.23;41.72;101457.81;4998076;28;20038;-71
2023/04/07 05:08:16;;;;;;;4.40;1.42;;;;;;;18.22;41.74;101464.91;4999229;28;20045;-70
2023/04/07 05:10:41;;;;;;;3.60;1.17;;;;;;;18.26;41.76;101468.16;4984369;28;20056;-72
2023/04/07 05:13:06;;;;;;;4.10;1.10;;;;;;;18.26;41.84;101462.88;4989612;28;20030;-71
2023/04/07 05:15:32;;;;;;;3.53;1.10;;;;;;;18.28;41.86;101469.72;4980458;28;20037;-69
2023/04/07 05:17:57;;;;;;;3.53;1.00;;;;;;;18.30;41.76;101464.34;4999868;28;20489;-69
2023/04/07 05:20:22;;;;;;;2.70;0.97;;;;;;;18.36;42.00;101474.47;4994691;28;20386;-69
2023/04/07 05:22:47;;;;;;;2.70;1.07;;;;;;;18.40;42.12;101472.44;4965204;28;20280;-70
2023/04/07 05:25:13;;;;;;;3.47;1.17;;;;;;;18.44;41.82;101481.81;4985745;28;20287;-70
2023/04/07 05:27:38;;;;;;;1.77;0.90;;;;;;;18.46;41.81;101483.38;4972905;28;20040;-69
2023/04/07 05:30:04;;;;;;;2.35;0.90;;;;;;;18.48;42.01;101478.00;4986304;28;20037;-70
2023/04/07 05:32:29;;;;;;;3.13;1.13;;;;;;;18.51;41.97;101479.59;4994632;28;20466;-68
2023/04/07 05:34:55;;;;;;;3.90;1.05;;;;;;;18.53;41.96;101482.94;4979616;28;20027;-68
2023/04/07 05:37:20;;;;;;;3.13;1.63;;;;;;;18.57;41.88;101494.97;4981657;28;20125;-71
2023/04/07 05:39:46;;;;;;;4.38;1.10;;;;;;;18.59;41.67;101493.88;4994852;28;20059;-69
2023/04/07 05:42:11;;;;;;;3.60;1.10;;;;;;;18.58;41.96;101489.59;5001439;28;20026;-70
2023/04/07 05:44:36;;;;;;;3.58;1.10;;;;;;;18.63;41.66;101491.88;4999885;28;20486;-70
2023/04/07 05:47:04;;;;;;;2.75;1.10;;;;;;;18.66;41.70;101486.38;4999585;28;20466;-71
2023/04/07 05:49:30;;;;;;;3.42;1.15;;;;;;;18.66;41.67;101487.22;4988028;28;20126;-69
2023/04/07 05:51:56;;;;;;;3.75;0.98;;;;;;;18.66;41.68;101487.22;4993337;28;20601;-69
2023/04/07 05:54:21;;;;;;;2.95;0.90;;;;;;;18.66;41.31;101486.38;4997670;28;20557;-68
2023/04/07 05:56:46;;;;;;;3.95;1.17;;;;;;;18.71;41.28;101489.53;4987593;28;20088;-70
2023/04/07 05:59:12;;;;;;;3.83;1.23;;;;;;;18.72;41.41;101480.63;4984939;28;20046;-70
2023/04/07 06:01:37;;;;;;;2.97;1.20;;;;;;;18.74;41.53;101488.44;4988880;28;20272;-70
2023/04/07 06:04:03;;;;;;;4.68;1.20;;;;;;;18.70;41.67;101482.56;5000286;28;20108;-70
2023/04/07 06:06:30;;;;;;;4.88;1.42;;;;;;;18.77;41.82;101491.72;5001260;28;20065;-69
2023/04/07 06:08:56;;;;;;;4.43;1.23;;;;;;;18.79;42.25;101494.25;4984864;28;20085;-70
2023/04/07 06:11:22;;;;;;;6.75;1.23;;;;;;;18.80;42.38;101498.56;4996262;28;21112;-68
2023/04/07 06:13:47;;;;;;;4.13;1.20;;;;;;;18.82;42.28;101496.66;4996753;28;20038;-69
2023/04/07 06:16:12;;;;;;;4.50;1.40;;;;;;;18.88;42.32;101504.13;4990727;28;20387;-69
2023/04/07 06:18:37;;;;;;;4.47;1.33;;;;;;;18.87;42.49;101505.13;4989845;28;20137;-70
2023/04/07 06:21:03;;;;;;;5.82;1.30;;;;;;;18.85;42.55;101502.59;4998202;28;20068;-69
2023/04/07 06:23:28;;;;;;;4.25;1.50;;;;;;;18.86;42.56;101503.41;4999884;28;20540;-72
2023/04/07 06:25:54;;;;;;;7.55;1.48;;;;;;;18.91;42.91;101503.06;4987568;28;20063;-71
2023/04/07 06:28:20;;;;;;;8.88;1.50;;;;;;;18.90;43.14;101506.66;4992511;28;20038;-67
2023/04/07 06:30:45;;;;;;;6.60;1.60;;;;;;;18.94;43.20;101514.25;4990654;28;20532;-68
2023/04/07 06:33:11;;;;;;;5.35;1.95;;;;;;;18.94;43.17;101518.69;4992335;28;20042;-70
2023/04/07 06:35:38;;;;;;;4.45;1.50;;;;;;;18.95;42.98;101515.13;4990133;28;20065;-69
2023/04/07 06:38:03;;;;;;;7.07;1.52;;;;;;;18.99;43.24;101521.84;4996477;28;20048;-69
2023/04/07 06:40:28;;;;;;;3.05;1.20;;;;;;;18.98;43.90;101522.81;4992628;28;20034;-68
2023/04/07 06:42:54;;;;;;;5.60;1.80;;;;;;;18.99;43.41;101514.78;4993376;28;20045;-69
2023/04/07 06:45:19;;;;;;;5.72;1.70;;;;;;;19.06;43.10;101527.50;4991430;28;20259;-72
2023/04/07 06:47:45;;;;;;;5.85;1.90;;;;;;;19.16;42.74;101531.16;4992818;28;20030;-68
2023/04/07 06:50:11;;;;;;;7.60;2.17;;;;;;;19.15;42.81;101529.47;4981973;28;20129;-64
2023/04/07 06:52:36;;;;;;;10.20;3.10;;;;;;;19.19;42.83;101521.19;4988559;28;20117;-66
2023/04/07 06:55:02;;;;;;;6.25;1.70;;;;;;;19.23;42.87;101528.88;4984553;28;20026;-69
2023/04/07 06:57:27;;;;;;;5.38;1.95;;;;;;;19.22;42.72;101533.34;4995872;28;20124;-67
2023/04/07 06:59:52;;;;;;;5.05;1.60;;;;;;;19.23;42.47;101536.81;4983764;28;20046;-69
2023/04/07 07:02:18;;;;;;;6.95;1.70;;;;;;;19.23;42.78;101536.81;4983024;28;20043;-67
2023/04/07 07:04:43;;;;;;;6.20;1.83;;;;;;;19.18;42.92;101532.75;4993267;28;20038;-67
2023/04/07 07:07:08;;;;;;;9.30;1.70;;;;;;;19.21;42.71;101540.41;4990679;28;20034;-68
2023/04/07 07:09:34;;;;;;;4.18;1.73;;;;;;;19.25;42.79;101543.69;4999715;28;20760;-68
2023/04/07 07:12:01;;;;;;;6.75;2.05;;;;;;;19.21;42.77;101543.03;4985710;28;20041;-68
2023/04/07 07:14:26;;;;;;;6.22;2.20;;;;;;;19.19;42.82;101550.25;4997008;28;20022;-66
2023/04/07 07:16:51;;;;;;;6.03;1.70;;;;;;;19.20;42.84;101549.31;4989646;28;20026;-67
2023/04/07 07:19:16;;;;;;;5.13;1.60;;;;;;;19.15;43.06;101546.19;4998839;28;20117;-66
2023/04/07 07:21:42;;;;;;;6.78;1.77;;;;;;;19.17;42.91;101554.00;4987696;28;20291;-66
2023/04/07 07:24:07;;;;;;;7.00;1.77;;;;;;;19.19;42.83;101558.19;4984061;28;20124;-66
2023/04/07 07:26:32;;;;;;;4.80;1.67;;;;;;;19.21;42.85;101552.78;4997733;28;20056;-69
2023/04/07 07:28:58;;;;;;;4.60;1.50;;;;;;;19.19;42.85;101552.06;4990501;28;20037;-66
2023/04/07 07:31:23;;;;;;;5.90;1.95;;;;;;;19.16;42.85;101552.28;5002506;28;20044;-65
2023/04/07 07:33:50;;;;;;;8.00;1.75;;;;;;;19.16;43.18;101555.78;4993251;28;20391;-67
2023/04/07 07:36:15;;;;;;;3.40;1.40;;;;;;;19.08;43.27;101544.09;5002306;28;20500;-64
2023/04/07 07:38:41;;;;;;;3.65;1.42;;;;;;;19.10;43.10;101565.94;4983317;28;20034;-67
2023/04/07 07:41:07;;;;;;;4.00;1.60;;;;;;;19.09;43.08;101569.53;4983266;28;20038;-66
2023/04/07 07:43:32;;;;;;;6.07;1.65;;;;;;;19.10;43.30;101571.25;4987431;28;20542;-66
2023/04/07 07:45:57;;;;;;;8.57;1.58;;;;;;;19.11;43.20;101573.78;4992658;28;20117;-70
2023/04/07 07:48:23;;;;;;;5.97;1.58;;;;;;;19.11;43.07;101578.22;4982662;28;20821;-71
2023/04/07 07:50:49;;;;;;;4.35;1.50;;;;;;;19.07;43.20;101574.94;4992943;28;20628;-70
2023/04/07 07:53:15;;;;;;;4.45;1.35;;;;;;;19.10;42.88;101581.81;4991281;28;20036;-70
2023/04/07 07:55:40;;;;;;;4.32;1.45;;;;;;;19.18;42.99;101588.22;4990653;28;20030;-71
2023/04/07 07:58:05;;;;;;;3.70;1.05;;;;;;;19.28;42.98;101579.59;4987239;28;20026;-68
2023/04/07 08:00:31;;;;;;;6.18;1.15;;;;;;;19.29;42.70;101581.28;4996898;28;20033;-65
2023/04/07 08:02:56;;;;;;;3.70;0.98;;;;;;;19.31;42.55;101580.22;5000039;28;20352;-69
2023/04/07 08:05:22;;;;;;;3.20;0.90;;;;;;;19.32;42.61;101578.41;4994787;28;20029;-67
2023/04/07 08:07:47;;;;;;;5.30;1.58;;;;;;;19.31;42.83;101584.66;4989554;28;20894;-67
2023/04/07 08:10:13;;;;;;;7.80;1.40;;;;;;;19.32;42.71;101594.28;4993170;28;20038;-69
2023/04/07 08:12:39;;;;;;;5.05;1.27;;;;;;;19.29;42.94;101592.69;4992806;28;20528;-67
2023/04/07 08:15:08;;;;;;;3.05;0.93;;;;;;;19.29;42.78;101597.13;4995912;28;20034;-68
2023/04/07 08:17:34;;;;;;;5.00;1.23;;;;;;;19.28;42.88;101596.31;4990793;28;20513;-67
2023/04/07 08:20:00;;;;;;;4.35;1.00;;;;;;;19.28;42.99;101603.38;4989840;28;20030;-67
2023/04/07 08:22:25;;;;;;;4.70;1.00;;;;;;;19.27;42.99;101605.19;4985351;28;20046;-68
2023/04/07 08:24:50;;;;;;;2.75;1.17;;;;;;;19.25;43.14;101606.25;5000733;28;20037;-66
2023/04/07 08:27:15;;;;;;;5.07;1.03;;;;;;;19.20;43.03;101610.09;4996932;28;20026;-66
2023/04/07 08:29:41;;;;;;;4.88;1.50;;;;;;;19.25;43.41;101608.88;4991285;28;21079;-66
2023/04/07 08:32:07;;;;;;;4.90;1.00;;;;;;;19.25;43.30;101617.69;4992032;28;20045;-67
2023/04/07 08:34:32;;;;;;;6.00;1.10;;;;;;;19.24;43.48;101615.16;5000272;28;20037;-68
2023/04/07 08:36:58;;;;;;;9.32;2.17;;;;;;;19.15;43.34;101617.50;4994193;28;20063;-69
2023/04/07 08:39:24;;;;;;;3.20;1.00;;;;;;;19.11;43.30;101621.31;4990874;28;20037;-69
2023/04/07 08:41:50;;;;;;;5.07;1.10;;;;;;;19.05;43.61;101620.94;4988770;28;20034;-66
2023/04/07 08:44:16;;;;;;;4.00;1.00;;;;;;;19.03;43.63;101618.41;4988888;28;20084;-67
2023/04/07 08:46:42;;;;;;;2.90;0.90;;;;;;;18.99;43.66;101625.72;4999573;28;20037;-66
2023/04/07 08:49:12;;;;;;;2.72;0.95;;;;;;;18.98;43.92;101633.75;4988228;28;20030;-67
2023/04/07 08:51:44;;;;;;;3.65;0.90;;;;;;;18.95;43.71;101624.25;4982579;28;20141;-68
2023/04/07 08:54:11;;;;;;;3.90;0.95;;;;;;;19.05;43.39;101629.69;4988560;28;20037;-66
2023/04/07 08:56:40;;;;;;;2.75;0.80;;;;;;;19.14;43.17;101630.84;4995601;28;20075;-66
2023/04/07 08:59:06;;;;;;;3.50;0.90;;;;;;;19.21;43.09;101635.53;4990619;28;20125;-68
2023/04/07 09:01:34;;;;;;;3.03;0.90;;;;;;;19.24;42.89;101642.41;4996450;28;20108;-68
2023/04/07 09:04:02;;;;;;;7.35;0.93;;;;;;;19.24;42.70;101639.75;4993322;28;20039;-67
2023/04/07 09:06:30;;;;;;;3.60;0.90;;;;;;;19.24;42.68;101642.41;4989538;28;20550;-68
2023/04/07 09:08:56;;;;;;;4.50;0.88;;;;;;;19.24;42.62;101642.41;4998153;28;20041;-68
2023/04/07 09:11:22;;;;;;;4.88;1.08;;;;;;;19.23;42.71;101638.06;5001928;28;20413;-67
2023/04/07 09:13:48;;;;;;;3.47;1.00;;;;;;;19.21;42.71;101637.34;4991809;28;20406;-67
2023/04/07 09:16:14;;;;;;;5.55;1.00;;;;;;;19.19;42.83;101645.38;4986793;28;20041;-70
2023/04/07 09:18:39;;;;;;;2.40;0.75;;;;;;;19.16;42.81;101644.78;4986340;28;20471;-67
2023/04/07 09:21:06;;;;;;;5.25;1.00;;;;;;;19.14;42.85;101650.16;4982924;28;20054;-70
2023/04/07 09:23:34;;;;;;;3.00;1.08;;;;;;;19.09;42.89;101651.44;4999557;28;20093;-69
2023/04/07 09:26:18;;;;;;;4.20;1.02;;;;;;;19.08;43.09;101649.78;4988699;28;20026;-68
2023/04/07 09:28:45;;;;;;;3.35;1.20;;;;;;;19.10;42.98;101651.34;4993520;28;20042;-67
2023/04/07 09:31:10;;;;;;;5.15;0.90;;;;;;;19.10;42.89;101653.97;4982389;28;20034;-68
2023/04/07 09:33:36;;;;;;;2.67;0.90;;;;;;;19.07;42.89;101651.56;4995087;28;20386;-65
2023/04/07 09:36:05;;;;;;;7.45;1.08;;;;;;;19.06;42.99;101651.66;4984461;28;20030;-67
2023/04/07 09:38:40;;;;;;;3.72;1.02;;;;;;;19.01;42.96;101655.50;4982828;28;20045;-61
2023/04/07 09:41:15;;;;;;;4.32;0.95;;;;;;;19.03;43.02;101658.88;4981254;28;20395;-68
2023/04/07 09:43:45;;;;;;;5.18;1.17;;;;;;;19.06;42.96;101649.88;4988598;28;20037;-67
2023/04/07 09:46:15;;;;;;;3.35;0.93;;;;;;;19.05;43.24;101647.34;4995718;28;20031;-67
2023/04/07 09:48:41;;;;;;;2.78;0.90;;;;;;;18.99;43.36;101657.41;4985812;28;20038;-67
2023/04/07 09:51:10;;;;;;;3.38;0.90;;;;;;;18.98;43.29;101644.31;5001473;28;20124;-65
2023/04/07 09:53:50;;;;;;;4.40;0.90;;;;;;;18.97;43.16;101648.75;4992592;28;20065;-68
2023/04/07 09:56:17;;;;;;;8.10;1.10;;;;;;;19.03;43.22;101652.75;4997827;28;20091;-67
2023/04/07 09:58:45;;;;;;;3.42;1.35;;;;;;;19.01;43.21;101654.66;4992828;28;20195;-69
2023/04/07 10:01:11;;;;;;;3.63;1.02;;;;;;;19.08;43.02;101652.41;4992680;28;20045;-66
2023/04/07 10:03:37;;;;;;;3.35;1.00;;;;;;;19.09;42.92;101651.44;4991471;28;20427;-67
2023/04/07 10:06:03;;;;;;;4.10;1.17;;;;;;;19.11;42.68;101663.59;4987023;28;20508;-66
2023/04/07 10:08:31;;;;;;;7.15;1.10;;;;;;;19.08;43.03;101655.91;4985470;28;20038;-66
2023/04/07 10:10:57;;;;;;;7.47;1.20;;;;;;;19.09;42.83;101657.59;5000462;28;20421;-67
2023/04/07 10:13:23;;;;;;;2.78;0.90;;;;;;;19.10;42.77;101661.06;4990141;28;20067;-68
2023/04/07 10:15:49;;;;;;;3.40;1.13;;;;;;;19.06;42.98;101670.16;4985931;28;20507;-67
2023/04/07 10:18:17;;;;;;;3.47;0.90;;;;;;;19.07;42.91;101666.56;4991908;28;20122;-69
2023/04/07 10:20:44;;;;;;;4.38;1.00;;;;;;;19.07;42.84;101663.94;4994908;28;20049;-68
2023/04/07 10:23:20;;;;;;;4.80;1.17;;;;;;;19.04;43.29;101672.91;4990988;28;20367;-68
2023/04/07 10:25:48;;;;;;;6.60;1.15;;;;;;;19.04;43.45;101675.56;4998796;28;20137;-69
2023/04/07 10:28:15;;;;;;;5.18;1.67;;;;;;;19.03;43.34;101680.00;5001886;28;20040;-71
2023/04/07 10:30:41;;;;;;;11.38;4.97;;;;;;;19.02;43.67;101680.94;4985678;28;20141;-69
2023/04/07 10:33:06;;;;;;;10.73;7.45;;;;;;;19.04;43.67;101683.47;4986543;28;20089;-72
2023/04/07 10:36:03;;;;;;;15.05;10.13;;;;;;;19.04;43.81;101694.03;4985658;28;20050;-70
2023/04/07 10:38:28;;;;;;;19.73;13.88;;;;;;;19.04;44.17;101694.03;4981017;28;20035;-70
2023/04/07 10:40:53;;;;;;;18.27;14.93;;;;;;;19.06;44.09;101692.16;4989806;28;20076;-69
2023/04/07 10:43:39;;;;;;;21.23;16.52;;;;;;;19.02;44.32;101694.16;4993507;28;20367;-70
2023/04/07 10:46:05;;;;;;;22.20;18.00;;;;;;;19.04;44.71;101691.41;4986330;28;20039;-70
2023/04/07 10:48:32;;;;;;;23.77;18.02;;;;;;;19.05;44.65;101689.63;4986874;28;20042;-70
2023/04/07 10:51:03;;;;;;;22.35;18.10;;;;;;;19.03;44.63;101697.66;4995429;28;20071;-69
2023/04/07 10:53:28;;;;;;;20.20;17.15;;;;;;;19.04;44.66;101691.41;4989380;28;20030;-68
2023/04/07 10:55:55;;;;;;;23.55;17.58;;;;;;;19.03;44.79;101698.50;4974806;28;20076;-69
2023/04/07 10:58:23;;;;;;;19.27;16.58;;;;;;;19.09;44.50;101706.91;4986493;28;20034;-70
2023/04/07 11:00:57;;;;;;;24.00;16.05;;;;;;;19.17;44.48;101704.59;4987954;28;20061;-68
2023/04/07 11:03:23;;;;;;;18.92;15.13;;;;;;;19.23;44.46;101698.00;5000439;28;20030;-67
2023/04/07 11:05:49;;;;;;;19.98;14.27;;;;;;;19.21;44.42;101695.47;4989261;28;20765;-67
2023/04/07 11:08:15;;;;;;;19.02;14.50;;;;;;;19.17;44.60;101697.50;4990097;28;20041;-71
2023/04/07 11:10:46;;;;;;;17.17;13.52;;;;;;;19.18;44.64;101698.34;4995316;28;20045;-70
2023/04/07 11:13:12;;;;;;;19.50;14.18;;;;;;;19.16;44.57;101694.97;4989824;28;20145;-67
2023/04/07 11:15:38;;;;;;;17.88;13.77;;;;;;;19.16;44.24;101695.81;4996084;28;20189;-67
2023/04/07 11:18:14;;;;;;;17.25;13.25;;;;;;;19.16;44.30;101698.44;4990415;28;20085;-68
2023/04/07 11:20:57;;;;;;;17.05;12.27;;;;;;;19.19;44.14;101697.41;4990826;28;20462;-69
2023/04/07 11:23:24;;;;;;;17.00;11.93;;;;;;;19.20;43.92;101701.72;4994955;28;20555;-68